sensor_id;sensor_type;location;lat;lon;timestamp;P1;P2;P0
40569;PMS5003;26270;34.428;-119.710;2022-11-15T00:01:06;6;5;
40569;PMS5003;26270;34.428;-119.710;2022-11-15T00:03:35;7;6;
40569;PMS5003;26270;34.428;-119.710;2022-11-15T00:06:03;6;5;
40569;PMS5003;26270;34.428;-119.710;2022-11-15T00:08:32;3;3;
40569;PMS5003;26270;34.428;-119.710;2022-11-15T00:11:01;7;7;
40569;PMS5003;26270;34.428;-119.710;2022-11-15T00:13:30;4;4;
40569;PMS5003;26270;34.428;-119.710;2022-11-15T00:15:58;5;5;
40569;PMS5003;26270;34.428;-119.710;2022-11-15T00:18:27;6;6;
40569;PMS5003;26270;34.428;-119.710;2022-11-15T00:20:56;6;4;
40569;PMS5003;26270;34.428;-119.710;2022-11-15T00:23:30;5;5;
40569;PMS5003;26270;34.428;-119.710;2022-11-15T00:25:58;7;6;
40569;PMS5003;26270;34.428;-119.710;2022-11-15T00:28:27;6;6;
40569;PMS5003;26270;34.428;-119.710;2022-11-15T00:30:59;4;4;
40569;PMS5003;26270;34.428;-119.710;2022-11-15T00:33:28;5;5;
40569;PMS5003;26270;34.428;-119.710;2022-11-15T00:35:59;4;3;
40569;PMS5003;26270;34.428;-119.710;2022-11-15T00:38:30;3;3;
40569;PMS5003;26270;34.428;-119.710;2022-11-15T00:40:59;5;3;
40569;PMS5003;26270;34.428;-119.710;2022-11-15T00:43:27;4;3;
40569;PMS5003;26270;34.428;-119.710;2022-11-15T00:45:55;4;4;
40569;PMS5003;26270;34.428;-119.710;2022-11-15T00:48:23;3;3;
40569;PMS5003;26270;34.428;-119.710;2022-11-15T00:50:52;5;3;
40569;PMS5003;26270;34.428;-119.710;2022-11-15T00:53:20;2;1;
40569;PMS5003;26270;34.428;-119.710;2022-11-15T00:55:48;4;3;
40569;PMS5003;26270;34.428;-119.710;2022-11-15T00:58:17;3;3;
40569;PMS5003;26270;34.428;-119.710;2022-11-15T01:00:45;2;2;
40569;PMS5003;26270;34.428;-119.710;2022-11-15T01:03:14;3;3;
40569;PMS5003;26270;34.428;-119.710;2022-11-15T01:05:42;2;1;
40569;PMS5003;26270;34.428;-119.710;2022-11-15T01:08:12;6;5;
40569;PMS5003;26270;34.428;-119.710;2022-11-15T01:10:40;4;4;
40569;PMS5003;26270;34.428;-119.710;2022-11-15T01:13:08;3;3;
40569;PMS5003;26270;34.428;-119.710;2022-11-15T01:15:38;4;4;
40569;PMS5003;26270;34.428;-119.710;2022-11-15T01:18:08;4;4;
40569;PMS5003;26270;34.428;-119.710;2022-11-15T01:20:39;6;6;
40569;PMS5003;26270;34.428;-119.710;2022-11-15T01:23:08;5;5;
40569;PMS5003;26270;34.428;-119.710;2022-11-15T01:25:37;4;4;
40569;PMS5003;26270;34.428;-119.710;2022-11-15T01:28:05;5;5;
40569;PMS5003;26270;34.428;-119.710;2022-11-15T01:30:35;5;5;
40569;PMS5003;26270;34.428;-119.710;2022-11-15T01:33:03;6;5;
40569;PMS5003;26270;34.428;-119.710;2022-11-15T01:35:31;5;4;
40569;PMS5003;26270;34.428;-119.710;2022-11-15T01:37:59;5;5;
40569;PMS5003;26270;34.428;-119.710;2022-11-15T01:40:28;5;5;
40569;PMS5003;26270;34.428;-119.710;2022-11-15T01:42:56;7;6;
40569;PMS5003;26270;34.428;-119.710;2022-11-15T01:45:25;7;7;
40569;PMS5003;26270;34.428;-119.710;2022-11-15T01:47:53;4;3;
40569;PMS5003;26270;34.428;-119.710;2022-11-15T01:50:23;6;6;
40569;PMS5003;26270;34.428;-119.710;2022-11-15T01:52:55;6;6;
40569;PMS5003;26270;34.428;-119.710;2022-11-15T01:55:24;7;7;
40569;PMS5003;26270;34.428;-119.710;2022-11-15T01:57:55;7;7;
40569;PMS5003;26270;34.428;-119.710;2022-11-15T02:00:26;7;7;
40569;PMS5003;26270;34.428;-119.710;2022-11-15T02:02:54;7;7;
40569;PMS5003;26270;34.428;-119.710;2022-11-15T02:05:23;10;9;
40569;PMS5003;26270;34.428;-119.710;2022-11-15T02:07:51;7;7;
40569;PMS5003;26270;34.428;-119.710;2022-11-15T02:10:21;9;8;
40569;PMS5003;26270;34.428;-119.710;2022-11-15T02:12:51;7;7;
40569;PMS5003;26270;34.428;-119.710;2022-11-15T02:15:20;9;7;
40569;PMS5003;26270;34.428;-119.710;2022-11-15T02:17:56;12;12;
40569;PMS5003;26270;34.428;-119.710;2022-11-15T02:20:41;12;11;
40569;PMS5003;26270;34.428;-119.710;2022-11-15T02:23:38;13;10;
40569;PMS5003;26270;34.428;-119.710;2022-11-15T02:26:49;12;11;
40569;PMS5003;26270;34.428;-119.710;2022-11-15T02:29:37;13;13;
40569;PMS5003;26270;34.428;-119.710;2022-11-15T02:32:18;11;11;
40569;PMS5003;26270;34.428;-119.710;2022-11-15T02:34:55;11;11;
40569;PMS5003;26270;34.428;-119.710;2022-11-15T02:37:32;10;10;
40569;PMS5003;26270;34.428;-119.710;2022-11-15T02:40:07;16;13;
40569;PMS5003;26270;34.428;-119.710;2022-11-15T02:42:41;14;13;
40569;PMS5003;26270;34.428;-119.710;2022-11-15T02:45:19;15;13;
40569;PMS5003;26270;34.428;-119.710;2022-11-15T02:47:54;13;12;
40569;PMS5003;26270;34.428;-119.710;2022-11-15T02:50:25;12;12;
40569;PMS5003;26270;34.428;-119.710;2022-11-15T02:52:56;13;12;
40569;PMS5003;26270;34.428;-119.710;2022-11-15T02:55:26;13;13;
40569;PMS5003;26270;34.428;-119.710;2022-11-15T02:58:01;10;9;
40569;PMS5003;26270;34.428;-119.710;2022-11-15T03:00:44;14;13;
40569;PMS5003;26270;34.428;-119.710;2022-11-15T03:03:23;13;13;
40569;PMS5003;26270;34.428;-119.710;2022-11-15T03:06:08;16;14;
40569;PMS5003;26270;34.428;-119.710;2022-11-15T03:08:45;25;21;
40569;PMS5003;26270;34.428;-119.710;2022-11-15T03:11:22;20;17;
40569;PMS5003;26270;34.428;-119.710;2022-11-15T03:13:53;22;21;
40569;PMS5003;26270;34.428;-119.710;2022-11-15T03:16:27;20;20;
40569;PMS5003;26270;34.428;-119.710;2022-11-15T03:19:02;23;23;
40569;PMS5003;26270;34.428;-119.710;2022-11-15T03:21:39;18;18;
40569;PMS5003;26270;34.428;-119.710;2022-11-15T03:24:08;35;31;
40569;PMS5003;26270;34.428;-119.710;2022-11-15T03:26:38;25;25;
40569;PMS5003;26270;34.428;-119.710;2022-11-15T03:29:11;32;28;
40569;PMS5003;26270;34.428;-119.710;2022-11-15T03:31:45;19;19;
40569;PMS5003;26270;34.428;-119.710;2022-11-15T03:34:20;20;18;
40569;PMS5003;26270;34.428;-119.710;2022-11-15T03:36:54;17;16;
40569;PMS5003;26270;34.428;-119.710;2022-11-15T03:39:22;20;18;
40569;PMS5003;26270;34.428;-119.710;2022-11-15T03:41:54;16;16;
40569;PMS5003;26270;34.428;-119.710;2022-11-15T03:44:33;21;21;
40569;PMS5003;26270;34.428;-119.710;2022-11-15T03:47:08;22;20;
40569;PMS5003;26270;34.428;-119.710;2022-11-15T03:49:40;24;21;
40569;PMS5003;26270;34.428;-119.710;2022-11-15T03:52:13;26;24;
40569;PMS5003;26270;34.428;-119.710;2022-11-15T03:54:48;26;25;
40569;PMS5003;26270;34.428;-119.710;2022-11-15T03:57:18;27;26;
40569;PMS5003;26270;34.428;-119.710;2022-11-15T03:59:46;25;22;
40569;PMS5003;26270;34.428;-119.710;2022-11-15T04:02:15;18;16;
40569;PMS5003;26270;34.428;-119.710;2022-11-15T04:04:43;15;13;
40569;PMS5003;26270;34.428;-119.710;2022-11-15T04:07:11;13;13;
40569;PMS5003;26270;34.428;-119.710;2022-11-15T04:09:40;15;14;
40569;PMS5003;26270;34.428;-119.710;2022-11-15T04:12:08;15;15;
40569;PMS5003;26270;34.428;-119.710;2022-11-15T04:14:35;18;16;
40569;PMS5003;26270;34.428;-119.710;2022-11-15T04:17:04;14;14;
40569;PMS5003;26270;34.428;-119.710;2022-11-15T04:19:31;16;15;
40569;PMS5003;26270;34.428;-119.710;2022-11-15T04:21:59;23;16;
40569;PMS5003;26270;34.428;-119.710;2022-11-15T04:24:28;18;18;
40569;PMS5003;26270;34.428;-119.710;2022-11-15T04:26:56;17;16;
40569;PMS5003;26270;34.428;-119.710;2022-11-15T04:29:24;14;13;
40569;PMS5003;26270;34.428;-119.710;2022-11-15T04:31:52;12;12;
40569;PMS5003;26270;34.428;-119.710;2022-11-15T04:34:19;13;13;
40569;PMS5003;26270;34.428;-119.710;2022-11-15T04:36:48;19;18;
40569;PMS5003;26270;34.428;-119.710;2022-11-15T04:39:16;21;19;
40569;PMS5003;26270;34.428;-119.710;2022-11-15T04:41:44;16;15;
40569;PMS5003;26270;34.428;-119.710;2022-11-15T04:44:13;26;26;
40569;PMS5003;26270;34.428;-119.710;2022-11-15T04:46:40;27;25;
40569;PMS5003;26270;34.428;-119.710;2022-11-15T04:49:09;17;17;
40569;PMS5003;26270;34.428;-119.710;2022-11-15T04:51:37;26;21;
40569;PMS5003;26270;34.428;-119.710;2022-11-15T04:54:05;22;20;
40569;PMS5003;26270;34.428;-119.710;2022-11-15T04:56:34;14;14;
40569;PMS5003;26270;34.428;-119.710;2022-11-15T04:59:02;12;12;
40569;PMS5003;26270;34.428;-119.710;2022-11-15T05:03:18;13;13;
40569;PMS5003;26270;34.428;-119.710;2022-11-15T05:05:46;10;10;
40569;PMS5003;26270;34.428;-119.710;2022-11-15T05:08:15;10;10;
40569;PMS5003;26270;34.428;-119.710;2022-11-15T05:10:42;9;9;
40569;PMS5003;26270;34.428;-119.710;2022-11-15T05:13:11;10;9;
40569;PMS5003;26270;34.428;-119.710;2022-11-15T05:15:40;10;9;
40569;PMS5003;26270;34.428;-119.710;2022-11-15T05:18:08;10;10;
40569;PMS5003;26270;34.428;-119.710;2022-11-15T05:20:36;10;10;
40569;PMS5003;26270;34.428;-119.710;2022-11-15T05:23:04;11;9;
40569;PMS5003;26270;34.428;-119.710;2022-11-15T05:25:33;10;10;
40569;PMS5003;26270;34.428;-119.710;2022-11-15T05:28:02;12;11;
40569;PMS5003;26270;34.428;-119.710;2022-11-15T05:30:30;11;10;
40569;PMS5003;26270;34.428;-119.710;2022-11-15T05:32:58;16;15;
40569;PMS5003;26270;34.428;-119.710;2022-11-15T05:35:29;14;13;
40569;PMS5003;26270;34.428;-119.710;2022-11-15T05:38:00;18;16;
40569;PMS5003;26270;34.428;-119.710;2022-11-15T05:40:29;18;18;
40569;PMS5003;26270;34.428;-119.710;2022-11-15T05:42:59;19;18;
40569;PMS5003;26270;34.428;-119.710;2022-11-15T05:45:29;25;25;
40569;PMS5003;26270;34.428;-119.710;2022-11-15T05:48:00;23;22;
40569;PMS5003;26270;34.428;-119.710;2022-11-15T05:50:33;23;21;
40569;PMS5003;26270;34.428;-119.710;2022-11-15T05:53:04;19;19;
40569;PMS5003;26270;34.428;-119.710;2022-11-15T05:55:32;23;22;
40569;PMS5003;26270;34.428;-119.710;2022-11-15T05:58:01;23;21;
40569;PMS5003;26270;34.428;-119.710;2022-11-15T06:00:29;24;20;
40569;PMS5003;26270;34.428;-119.710;2022-11-15T06:02:58;25;25;
40569;PMS5003;26270;34.428;-119.710;2022-11-15T06:05:26;25;24;
40569;PMS5003;26270;34.428;-119.710;2022-11-15T06:07:57;21;21;
40569;PMS5003;26270;34.428;-119.710;2022-11-15T06:10:25;29;25;
40569;PMS5003;26270;34.428;-119.710;2022-11-15T06:12:57;44;38;
40569;PMS5003;26270;34.428;-119.710;2022-11-15T06:15:25;39;33;
40569;PMS5003;26270;34.428;-119.710;2022-11-15T06:17:56;21;21;
40569;PMS5003;26270;34.428;-119.710;2022-11-15T06:20:24;17;16;
40569;PMS5003;26270;34.428;-119.710;2022-11-15T06:22:56;10;10;
40569;PMS5003;26270;34.428;-119.710;2022-11-15T06:25:25;12;11;
40569;PMS5003;26270;34.428;-119.710;2022-11-15T06:27:54;14;13;
40569;PMS5003;26270;34.428;-119.710;2022-11-15T06:30:23;19;17;
40569;PMS5003;26270;34.428;-119.710;2022-11-15T06:32:58;15;13;
40569;PMS5003;26270;34.428;-119.710;2022-11-15T06:35:27;20;17;
40569;PMS5003;26270;34.428;-119.710;2022-11-15T06:37:55;18;17;
40569;PMS5003;26270;34.428;-119.710;2022-11-15T06:40:28;16;12;
40569;PMS5003;26270;34.428;-119.710;2022-11-15T06:42:57;13;12;
40569;PMS5003;26270;34.428;-119.710;2022-11-15T06:45:26;10;9;
40569;PMS5003;26270;34.428;-119.710;2022-11-15T06:47:53;9;9;
40569;PMS5003;26270;34.428;-119.710;2022-11-15T06:50:21;10;10;
40569;PMS5003;26270;34.428;-119.710;2022-11-15T06:52:50;11;10;
40569;PMS5003;26270;34.428;-119.710;2022-11-15T06:55:18;12;12;
40569;PMS5003;26270;34.428;-119.710;2022-11-15T06:57:47;13;12;
40569;PMS5003;26270;34.428;-119.710;2022-11-15T07:00:16;13;12;
40569;PMS5003;26270;34.428;-119.710;2022-11-15T07:02:47;10;10;
40569;PMS5003;26270;34.428;-119.710;2022-11-15T07:05:16;8;8;
40569;PMS5003;26270;34.428;-119.710;2022-11-15T07:07:50;9;8;
40569;PMS5003;26270;34.428;-119.710;2022-11-15T07:10:19;8;8;
40569;PMS5003;26270;34.428;-119.710;2022-11-15T07:12:47;8;8;
40569;PMS5003;26270;34.428;-119.710;2022-11-15T07:15:16;10;9;
40569;PMS5003;26270;34.428;-119.710;2022-11-15T07:17:45;9;9;
40569;PMS5003;26270;34.428;-119.710;2022-11-15T07:20:14;11;10;
40569;PMS5003;26270;34.428;-119.710;2022-11-15T07:22:42;11;11;
40569;PMS5003;26270;34.428;-119.710;2022-11-15T07:25:11;14;11;
40569;PMS5003;26270;34.428;-119.710;2022-11-15T07:27:39;8;7;
40569;PMS5003;26270;34.428;-119.710;2022-11-15T07:30:07;7;7;
40569;PMS5003;26270;34.428;-119.710;2022-11-15T07:32:36;8;7;
40569;PMS5003;26270;34.428;-119.710;2022-11-15T07:35:05;10;8;
40569;PMS5003;26270;34.428;-119.710;2022-11-15T07:37:33;10;9;
40569;PMS5003;26270;34.428;-119.710;2022-11-15T07:40:01;15;15;
40569;PMS5003;26270;34.428;-119.710;2022-11-15T07:42:30;19;15;
40569;PMS5003;26270;34.428;-119.710;2022-11-15T07:44:59;11;10;
40569;PMS5003;26270;34.428;-119.710;2022-11-15T07:47:28;9;8;
40569;PMS5003;26270;34.428;-119.710;2022-11-15T07:49:56;7;6;
40569;PMS5003;26270;34.428;-119.710;2022-11-15T07:52:23;8;7;
40569;PMS5003;26270;34.428;-119.710;2022-11-15T07:54:51;6;6;
40569;PMS5003;26270;34.428;-119.710;2022-11-15T07:57:20;6;6;
40569;PMS5003;26270;34.428;-119.710;2022-11-15T07:59:47;9;8;
40569;PMS5003;26270;34.428;-119.710;2022-11-15T08:02:15;7;6;
40569;PMS5003;26270;34.428;-119.710;2022-11-15T08:04:43;5;5;
40569;PMS5003;26270;34.428;-119.710;2022-11-15T08:07:11;6;6;
40569;PMS5003;26270;34.428;-119.710;2022-11-15T08:09:39;7;6;
40569;PMS5003;26270;34.428;-119.710;2022-11-15T08:12:07;9;8;
40569;PMS5003;26270;34.428;-119.710;2022-11-15T08:14:36;8;7;
40569;PMS5003;26270;34.428;-119.710;2022-11-15T08:17:05;7;7;
40569;PMS5003;26270;34.428;-119.710;2022-11-15T08:19:32;6;6;
40569;PMS5003;26270;34.428;-119.710;2022-11-15T08:22:00;6;5;
40569;PMS5003;26270;34.428;-119.710;2022-11-15T08:24:28;8;7;
40569;PMS5003;26270;34.428;-119.710;2022-11-15T08:26:56;9;8;
40569;PMS5003;26270;34.428;-119.710;2022-11-15T08:29:24;5;5;
40569;PMS5003;26270;34.428;-119.710;2022-11-15T08:31:53;5;5;
40569;PMS5003;26270;34.428;-119.710;2022-11-15T08:34:22;6;6;
40569;PMS5003;26270;34.428;-119.710;2022-11-15T08:36:49;5;5;
40569;PMS5003;26270;34.428;-119.710;2022-11-15T08:39:17;6;6;
40569;PMS5003;26270;34.428;-119.710;2022-11-15T08:41:45;7;6;
40569;PMS5003;26270;34.428;-119.710;2022-11-15T08:44:13;4;4;
40569;PMS5003;26270;34.428;-119.710;2022-11-15T08:46:42;4;4;
40569;PMS5003;26270;34.428;-119.710;2022-11-15T08:49:12;6;6;
40569;PMS5003;26270;34.428;-119.710;2022-11-15T08:51:40;4;4;
40569;PMS5003;26270;34.428;-119.710;2022-11-15T08:54:09;5;5;
40569;PMS5003;26270;34.428;-119.710;2022-11-15T08:56:37;5;5;
40569;PMS5003;26270;34.428;-119.710;2022-11-15T08:59:05;4;4;
40569;PMS5003;26270;34.428;-119.710;2022-11-15T09:01:33;4;3;
40569;PMS5003;26270;34.428;-119.710;2022-11-15T09:04:00;5;5;
40569;PMS5003;26270;34.428;-119.710;2022-11-15T09:06:28;5;5;
40569;PMS5003;26270;34.428;-119.710;2022-11-15T09:08:56;4;4;
40569;PMS5003;26270;34.428;-119.710;2022-11-15T09:11:24;5;5;
40569;PMS5003;26270;34.428;-119.710;2022-11-15T09:13:53;4;4;
40569;PMS5003;26270;34.428;-119.710;2022-11-15T09:16:22;4;4;
40569;PMS5003;26270;34.428;-119.710;2022-11-15T09:18:50;5;4;
40569;PMS5003;26270;34.428;-119.710;2022-11-15T09:21:18;3;3;
40569;PMS5003;26270;34.428;-119.710;2022-11-15T09:23:46;3;3;
40569;PMS5003;26270;34.428;-119.710;2022-11-15T09:26:16;3;3;
40569;PMS5003;26270;34.428;-119.710;2022-11-15T09:28:45;3;3;
40569;PMS5003;26270;34.428;-119.710;2022-11-15T09:31:13;4;4;
40569;PMS5003;26270;34.428;-119.710;2022-11-15T09:33:43;3;3;
40569;PMS5003;26270;34.428;-119.710;2022-11-15T09:36:12;3;3;
40569;PMS5003;26270;34.428;-119.710;2022-11-15T09:38:41;2;2;
40569;PMS5003;26270;34.428;-119.710;2022-11-15T09:41:20;3;3;
40569;PMS5003;26270;34.428;-119.710;2022-11-15T09:44:06;3;3;
40569;PMS5003;26270;34.428;-119.710;2022-11-15T09:46:48;4;4;
40569;PMS5003;26270;34.428;-119.710;2022-11-15T09:49:25;3;3;
40569;PMS5003;26270;34.428;-119.710;2022-11-15T09:51:53;2;2;
40569;PMS5003;26270;34.428;-119.710;2022-11-15T09:54:25;3;2;
40569;PMS5003;26270;34.428;-119.710;2022-11-15T09:56:56;3;3;
40569;PMS5003;26270;34.428;-119.710;2022-11-15T09:59:43;4;3;
40569;PMS5003;26270;34.428;-119.710;2022-11-15T10:02:27;3;2;
40569;PMS5003;26270;34.428;-119.710;2022-11-15T10:05:07;3;3;
40569;PMS5003;26270;34.428;-119.710;2022-11-15T10:07:40;3;3;
40569;PMS5003;26270;34.428;-119.710;2022-11-15T10:10:17;3;3;
40569;PMS5003;26270;34.428;-119.710;2022-11-15T10:12:52;2;2;
40569;PMS5003;26270;34.428;-119.710;2022-11-15T10:15:20;5;4;
40569;PMS5003;26270;34.428;-119.710;2022-11-15T10:17:54;2;2;
40569;PMS5003;26270;34.428;-119.710;2022-11-15T10:20:33;2;2;
40569;PMS5003;26270;34.428;-119.710;2022-11-15T10:23:11;3;3;
40569;PMS5003;26270;34.428;-119.710;2022-11-15T10:25:40;4;3;
40569;PMS5003;26270;34.428;-119.710;2022-11-15T10:28:11;3;3;
40569;PMS5003;26270;34.428;-119.710;2022-11-15T10:30:43;3;2;
40569;PMS5003;26270;34.428;-119.710;2022-11-15T10:33:17;3;3;
40569;PMS5003;26270;34.428;-119.710;2022-11-15T10:36:29;3;3;
40569;PMS5003;26270;34.428;-119.710;2022-11-15T10:38:57;4;3;
40569;PMS5003;26270;34.428;-119.710;2022-11-15T10:41:35;3;2;
40569;PMS5003;26270;34.428;-119.710;2022-11-15T10:44:18;3;3;
40569;PMS5003;26270;34.428;-119.710;2022-11-15T10:47:04;2;2;
40569;PMS5003;26270;34.428;-119.710;2022-11-15T10:49:53;3;3;
40569;PMS5003;26270;34.428;-119.710;2022-11-15T10:52:23;5;4;
40569;PMS5003;26270;34.428;-119.710;2022-11-15T10:54:53;6;6;
40569;PMS5003;26270;34.428;-119.710;2022-11-15T10:57:26;9;7;
40569;PMS5003;26270;34.428;-119.710;2022-11-15T10:59:59;7;6;
40569;PMS5003;26270;34.428;-119.710;2022-11-15T11:02:31;2;2;
40569;PMS5003;26270;34.428;-119.710;2022-11-15T11:05:03;4;3;
40569;PMS5003;26270;34.428;-119.710;2022-11-15T11:07:34;3;3;
40569;PMS5003;26270;34.428;-119.710;2022-11-15T11:10:04;3;2;
40569;PMS5003;26270;34.428;-119.710;2022-11-15T11:12:46;2;2;
40569;PMS5003;26270;34.428;-119.710;2022-11-15T11:15:15;4;2;
40569;PMS5003;26270;34.428;-119.710;2022-11-15T11:17:49;3;3;
40569;PMS5003;26270;34.428;-119.710;2022-11-15T11:20:25;4;3;
40569;PMS5003;26270;34.428;-119.710;2022-11-15T11:23:03;2;2;
40569;PMS5003;26270;34.428;-119.710;2022-11-15T11:25:43;2;2;
40569;PMS5003;26270;34.428;-119.710;2022-11-15T11:28:24;2;2;
40569;PMS5003;26270;34.428;-119.710;2022-11-15T11:31:04;3;3;
40569;PMS5003;26270;34.428;-119.710;2022-11-15T11:33:42;2;2;
40569;PMS5003;26270;34.428;-119.710;2022-11-15T11:36:24;1;1;
40569;PMS5003;26270;34.428;-119.710;2022-11-15T11:39:07;3;3;
40569;PMS5003;26270;34.428;-119.710;2022-11-15T11:41:52;2;2;
40569;PMS5003;26270;34.428;-119.710;2022-11-15T11:44:36;3;3;
40569;PMS5003;26270;34.428;-119.710;2022-11-15T11:47:15;2;2;
40569;PMS5003;26270;34.428;-119.710;2022-11-15T11:49:49;3;3;
40569;PMS5003;26270;34.428;-119.710;2022-11-15T11:52:22;3;2;
40569;PMS5003;26270;34.428;-119.710;2022-11-15T11:54:58;3;3;
40569;PMS5003;26270;34.428;-119.710;2022-11-15T11:57:34;2;2;
40569;PMS5003;26270;34.428;-119.710;2022-11-15T12:00:13;1;1;
40569;PMS5003;26270;34.428;-119.710;2022-11-15T12:02:46;1;1;
40569;PMS5003;26270;34.428;-119.710;2022-11-15T12:05:30;1;1;
40569;PMS5003;26270;34.428;-119.710;2022-11-15T12:08:03;1;1;
40569;PMS5003;26270;34.428;-119.710;2022-11-15T12:10:43;3;3;
40569;PMS5003;26270;34.428;-119.710;2022-11-15T12:13:19;1;1;
40569;PMS5003;26270;34.428;-119.710;2022-11-15T12:15:53;2;2;
40569;PMS5003;26270;34.428;-119.710;2022-11-15T12:18:29;2;2;
40569;PMS5003;26270;34.428;-119.710;2022-11-15T12:20:58;2;2;
40569;PMS5003;26270;34.428;-119.710;2022-11-15T12:23:30;1;1;
40569;PMS5003;26270;34.428;-119.710;2022-11-15T12:26:06;2;2;
40569;PMS5003;26270;34.428;-119.710;2022-11-15T12:28:39;2;1;
40569;PMS5003;26270;34.428;-119.710;2022-11-15T12:31:14;3;3;
40569;PMS5003;26270;34.428;-119.710;2022-11-15T12:33:48;1;1;
40569;PMS5003;26270;34.428;-119.710;2022-11-15T12:36:30;2;2;
40569;PMS5003;26270;34.428;-119.710;2022-11-15T12:39:04;2;2;
40569;PMS5003;26270;34.428;-119.710;2022-11-15T12:41:34;1;1;
40569;PMS5003;26270;34.428;-119.710;2022-11-15T12:44:04;2;2;
40569;PMS5003;26270;34.428;-119.710;2022-11-15T12:47:42;2;1;
40569;PMS5003;26270;34.428;-119.710;2022-11-15T12:50:12;2;2;
40569;PMS5003;26270;34.428;-119.710;2022-11-15T12:52:54;3;2;
40569;PMS5003;26270;34.428;-119.710;2022-11-15T12:56:08;2;2;
40569;PMS5003;26270;34.428;-119.710;2022-11-15T12:58:50;2;2;
40569;PMS5003;26270;34.428;-119.710;2022-11-15T13:02:25;4;3;
40569;PMS5003;26270;34.428;-119.710;2022-11-15T13:08:48;2;2;
40569;PMS5003;26270;34.428;-119.710;2022-11-15T13:11:50;2;2;
40569;PMS5003;26270;34.428;-119.710;2022-11-15T13:14:44;2;2;
40569;PMS5003;26270;34.428;-119.710;2022-11-15T13:17:17;4;3;
40569;PMS5003;26270;34.428;-119.710;2022-11-15T13:19:57;2;2;
40569;PMS5003;26270;34.428;-119.710;2022-11-15T13:22:27;2;2;
40569;PMS5003;26270;34.428;-119.710;2022-11-15T13:25:14;1;1;
40569;PMS5003;26270;34.428;-119.710;2022-11-15T13:27:44;3;3;
40569;PMS5003;26270;34.428;-119.710;2022-11-15T13:30:14;3;3;
40569;PMS5003;26270;34.428;-119.710;2022-11-15T13:32:46;3;3;
40569;PMS5003;26270;34.428;-119.710;2022-11-15T13:35:19;4;3;
40569;PMS5003;26270;34.428;-119.710;2022-11-15T13:37:50;3;3;
40569;PMS5003;26270;34.428;-119.710;2022-11-15T13:40:21;2;2;
40569;PMS5003;26270;34.428;-119.710;2022-11-15T13:42:52;2;2;
40569;PMS5003;26270;34.428;-119.710;2022-11-15T13:45:21;4;3;
40569;PMS5003;26270;34.428;-119.710;2022-11-15T13:47:52;4;3;
40569;PMS5003;26270;34.428;-119.710;2022-11-15T13:50:24;5;5;
40569;PMS5003;26270;34.428;-119.710;2022-11-15T13:52:56;12;11;
40569;PMS5003;26270;34.428;-119.710;2022-11-15T13:55:27;13;13;
40569;PMS5003;26270;34.428;-119.710;2022-11-15T13:57:58;11;9;
40569;PMS5003;26270;34.428;-119.710;2022-11-15T14:00:32;7;7;
40569;PMS5003;26270;34.428;-119.710;2022-11-15T14:03:07;10;10;
40569;PMS5003;26270;34.428;-119.710;2022-11-15T14:06:02;18;17;
40569;PMS5003;26270;34.428;-119.710;2022-11-15T14:08:34;36;36;
40569;PMS5003;26270;34.428;-119.710;2022-11-15T14:11:07;54;54;
40569;PMS5003;26270;34.428;-119.710;2022-11-15T14:13:40;57;55;
40569;PMS5003;26270;34.428;-119.710;2022-11-15T14:16:16;57;57;
40569;PMS5003;26270;34.428;-119.710;2022-11-15T14:18:47;47;47;
40569;PMS5003;26270;34.428;-119.710;2022-11-15T14:21:17;33;33;
40569;PMS5003;26270;34.428;-119.710;2022-11-15T14:23:47;19;19;
40569;PMS5003;26270;34.428;-119.710;2022-11-15T14:26:31;12;12;
40569;PMS5003;26270;34.428;-119.710;2022-11-15T14:29:21;18;18;
40569;PMS5003;26270;34.428;-119.710;2022-11-15T14:31:49;25;24;
40569;PMS5003;26270;34.428;-119.710;2022-11-15T14:34:18;23;23;
40569;PMS5003;26270;34.428;-119.710;2022-11-15T14:36:47;22;22;
40569;PMS5003;26270;34.428;-119.710;2022-11-15T14:39:14;25;25;
40569;PMS5003;26270;34.428;-119.710;2022-11-15T14:41:42;22;22;
40569;PMS5003;26270;34.428;-119.710;2022-11-15T14:44:10;21;19;
40569;PMS5003;26270;34.428;-119.710;2022-11-15T14:46:39;16;16;
40569;PMS5003;26270;34.428;-119.710;2022-11-15T14:49:06;13;13;
40569;PMS5003;26270;34.428;-119.710;2022-11-15T14:51:34;14;14;
40569;PMS5003;26270;34.428;-119.710;2022-11-15T14:54:02;14;14;
40569;PMS5003;26270;34.428;-119.710;2022-11-15T14:56:30;16;14;
40569;PMS5003;26270;34.428;-119.710;2022-11-15T14:58:58;22;21;
40569;PMS5003;26270;34.428;-119.710;2022-11-15T15:01:26;23;23;
40569;PMS5003;26270;34.428;-119.710;2022-11-15T15:03:55;25;25;
40569;PMS5003;26270;34.428;-119.710;2022-11-15T15:06:23;23;22;
40569;PMS5003;26270;34.428;-119.710;2022-11-15T15:08:52;11;11;
40569;PMS5003;26270;34.428;-119.710;2022-11-15T15:11:20;7;6;
40569;PMS5003;26270;34.428;-119.710;2022-11-15T15:13:50;6;5;
40569;PMS5003;26270;34.428;-119.710;2022-11-15T15:16:19;6;5;
40569;PMS5003;26270;34.428;-119.710;2022-11-15T15:18:47;3;3;
40569;PMS5003;26270;34.428;-119.710;2022-11-15T15:21:18;3;3;
40569;PMS5003;26270;34.428;-119.710;2022-11-15T15:23:49;5;4;
40569;PMS5003;26270;34.428;-119.710;2022-11-15T15:26:17;3;3;
40569;PMS5003;26270;34.428;-119.710;2022-11-15T15:28:46;3;3;
40569;PMS5003;26270;34.428;-119.710;2022-11-15T15:31:14;3;3;
40569;PMS5003;26270;34.428;-119.710;2022-11-15T15:33:42;3;3;
40569;PMS5003;26270;34.428;-119.710;2022-11-15T15:36:11;4;3;
40569;PMS5003;26270;34.428;-119.710;2022-11-15T15:38:40;2;2;
40569;PMS5003;26270;34.428;-119.710;2022-11-15T15:41:09;4;4;
40569;PMS5003;26270;34.428;-119.710;2022-11-15T15:43:38;3;3;
40569;PMS5003;26270;34.428;-119.710;2022-11-15T15:46:08;3;3;
40569;PMS5003;26270;34.428;-119.710;2022-11-15T15:48:38;4;4;
40569;PMS5003;26270;34.428;-119.710;2022-11-15T15:51:06;4;4;
40569;PMS5003;26270;34.428;-119.710;2022-11-15T15:53:34;5;4;
40569;PMS5003;26270;34.428;-119.710;2022-11-15T15:56:03;4;4;
40569;PMS5003;26270;34.428;-119.710;2022-11-15T15:58:31;4;4;
40569;PMS5003;26270;34.428;-119.710;2022-11-15T16:00:59;5;3;
40569;PMS5003;26270;34.428;-119.710;2022-11-15T16:03:27;7;5;
40569;PMS5003;26270;34.428;-119.710;2022-11-15T16:05:55;4;3;
40569;PMS5003;26270;34.428;-119.710;2022-11-15T16:08:24;3;3;
40569;PMS5003;26270;34.428;-119.710;2022-11-15T16:10:52;4;4;
40569;PMS5003;26270;34.428;-119.710;2022-11-15T16:13:20;4;4;
40569;PMS5003;26270;34.428;-119.710;2022-11-15T16:15:49;3;3;
40569;PMS5003;26270;34.428;-119.710;2022-11-15T16:18:20;5;4;
40569;PMS5003;26270;34.428;-119.710;2022-11-15T16:20:49;3;3;
40569;PMS5003;26270;34.428;-119.710;2022-11-15T16:23:17;4;4;
40569;PMS5003;26270;34.428;-119.710;2022-11-15T16:25:46;4;4;